Roxbury Flat, Vermont
Current Conditions -  °F | °C
As of 6:51 PM on Saturday 25 Oct 2014 (Local Time) from KMPV Reporting Station
Light Rain Light Rain  
Wind Chill: 50°   Ceiling: 5000
Heat Index: 50°   Visibility: 10mi
Dew Point: 44°   Wind: 5mph
Humidity: 80%   Direction: 190°S
Pressure: 29.56"   Gusts: NA
Location:  44.0701°N, 72.7276°W
Report Text: KMPV 252251Z AUTO 19004KT 10SM -RA BKN050 OVC060 10/07 A2956 RMK AO2 SLP019 P0001 T01000067 $
Loading
Personal Weather Stations






























Interactive Weather Map
Tropical Storm Tracking
New forecast layout! Learn more

10-Day Weather Forecast

Advertisements
Track Severe Weather on mobile